首页
METAR-TAF:

METAR-TAF

机场 :

开普敦国际机场

開普敦, 南非共和國

纬度: 33-59S, 经度: 018-36E, 海拔: 42米

当前天气观测

该预报发布于33分钟前的09:00 UTC
风速5节,风向,在西北北转东北之间变化
温度 14°C
湿度 72%
气压 1014 hPa
能见度10公里或以上
1500米以下无云,无积雨云

METAR: FACT 190900Z 35005KT 310V020 CAVOK 14/09 Q1014 NOSIG

时间: 11:33 (09:33 UTC)

预报

该预报发布于5小时和33分钟前的04:00 UTC
预报有效从19日的 06点(UTC)到 20日的 12点(UTC)
风速9节,风向北转西北
能见度10公里或以上
少量云层高于2000英尺
从 19日的 1200点(UTC)
风速13节,风向西北
能见度10公里或以上
多云层高于2000英尺
成为
从 19日的 14点(UTC)到 19日的 16点(UTC)
风速10节,风向南转西南
多云层高于1200英尺
短暂存在
从 19日的 14点(UTC)到 19日的 22点(UTC)
能見度: 4000
小雨
几率 40% :
短暂存在
从 19日的 22点(UTC)到 20日的 08点(UTC)
能見度: 4500
小雨
成为
从 20日的 09点(UTC)到 20日的 11点(UTC)
多云层高于3000英尺

TAF: FACT 190400Z 1906/2012 34009KT 9999 FEW020 FM191200 32013KT 9999 BKN020 BECMG 1914/1916 20010KT BKN012 TEMPO 1914/1922 4000 -RA PROB40 TEMPO 1922/2008 4500 -RA BECMG 2009/2011 BKN030 TX18/1912Z TN05/1906Z

超过4000个机场的气象观测和天气预报(METAR&TAF报告)。

可查询的气象台以黄色和红色小点在地图上表示。

将鼠标移到小点上方,可查看气象台名称。

然后点击查看天气观测和预报。

如需切换地图:点击带黑十字的绿色按钮放大地图;点击带横线的绿色按钮缩小地图;或者点击绿色箭头查看邻近地区的地图。


METAR-TAF: